Time;durP1;ratioP1;P1;durP2;ratioP2;P2;SDS_P1;SDS_P2;PMS_P1;PMS_P2;Temp;Humidity;BMP_temperature;BMP_pressure;BME280_temperature;BME280_humidity;BME280_pressure;Samples;Min_cycle;Max_cycle;Signal;HPM_P1;HPM_P2
2022/08/05 00:02:23;;;;;;;0.17;0.10;;;17.80;99.90;;;;;;4818906;29;20062;-75
2022/08/05 00:04:49;;;;;;;0.17;0.03;;;17.90;99.90;;;;;;4808699;29;20054;-75
2022/08/05 00:07:14;;;;;;;0.00;0.00;;;17.90;99.90;;;;;;4819301;29;20062;-75
2022/08/05 00:09:40;;;;;;;0.20;0.03;;;17.90;99.90;;;;;;4820776;29;20136;-76
2022/08/05 00:12:06;;;;;;;0.20;0.10;;;17.90;99.90;;;;;;4820903;29;20304;-75
2022/08/05 00:14:32;;;;;;;0.30;0.22;;;17.80;99.90;;;;;;4818060;29;20180;-76
2022/08/05 00:16:58;;;;;;;;;;;17.70;99.90;;;;;;4821352;29;20165;-75
2022/08/05 00:19:24;;;;;;;0.30;0.20;;;17.80;99.90;;;;;;4803927;29;19928;-75
2022/08/05 00:21:49;;;;;;;;;;;17.90;99.90;;;;;;4819450;29;20055;-75
2022/08/05 00:24:15;;;;;;;0.95;0.30;;;17.90;99.90;;;;;;4823692;29;19920;-75
2022/08/05 00:26:41;;;;;;;0.50;0.20;;;17.70;99.90;;;;;;4820364;29;20062;-75
2022/08/05 00:29:07;;;;;;;0.20;0.20;;;17.90;99.90;;;;;;4820008;29;20462;-76
2022/08/05 00:31:32;;;;;;;0.60;0.13;;;17.80;99.90;;;;;;4816683;29;20507;-75
2022/08/05 00:33:58;;;;;;;0.28;0.20;;;17.90;99.90;;;;;;4808486;29;20115;-75
2022/08/05 00:36:24;;;;;;;;;;;17.90;99.90;;;;;;4818150;29;20525;-75
2022/08/05 00:38:50;;;;;;;0.55;0.30;;;17.70;99.90;;;;;;4816496;29;20307;-75
2022/08/05 00:41:35;;;;;;;0.45;0.28;;;17.70;99.90;;;;;;4814616;29;20058;-75
2022/08/05 00:44:01;;;;;;;0.20;0.20;;;17.70;99.90;;;;;;4820040;29;20049;-75
2022/08/05 00:46:26;;;;;;;;;;;17.40;99.90;;;;;;4819932;29;20150;-75
2022/08/05 00:48:53;;;;;;;0.40;0.28;;;17.60;99.90;;;;;;4801423;29;20014;-75
2022/08/05 00:51:20;;;;;;;0.20;0.10;;;17.80;99.90;;;;;;4817951;29;20124;-76
2022/08/05 00:53:46;;;;;;;1.17;0.28;;;17.70;99.90;;;;;;4819919;29;20058;-75
2022/08/05 00:56:14;;;;;;;0.40;0.25;;;17.50;99.90;;;;;;4818229;29;20073;-75
2022/08/05 00:58:40;;;;;;;0.10;0.10;;;17.60;99.90;;;;;;4819164;29;20058;-76
2022/08/05 01:01:06;;;;;;;;;;;17.50;99.90;;;;;;4820007;29;20134;-75
2022/08/05 01:03:31;;;;;;;0.30;0.20;;;17.50;99.90;;;;;;4819635;29;19921;-76
2022/08/05 01:05:57;;;;;;;0.35;0.13;;;17.70;99.90;;;;;;4808886;29;20081;-76
2022/08/05 01:08:23;;;;;;;0.40;0.20;;;17.60;99.90;;;;;;4820400;29;20050;-75
2022/08/05 01:10:56;;;;;;;0.25;0.20;;;17.50;99.90;;;;;;4807701;29;20145;-75
2022/08/05 01:13:37;;;;;;;0.20;0.20;;;17.60;99.90;;;;;;4819031;29;20090;-75
2022/08/05 01:16:08;;;;;;;0.47;0.20;;;17.60;99.90;;;;;;4815240;29;20514;-76
2022/08/05 01:18:40;;;;;;;0.38;0.28;;;17.60;99.90;;;;;;4818580;29;20058;-75
2022/08/05 01:21:05;;;;;;;0.20;0.20;;;17.50;99.90;;;;;;4819254;29;20148;-76
2022/08/05 01:23:31;;;;;;;;;;;17.70;99.90;;;;;;4818710;29;20051;-76
2022/08/05 01:26:25;;;;;;;0.52;0.20;;;17.60;99.90;;;;;;4817775;29;19925;-75
2022/08/05 01:28:59;;;;;;;0.10;0.10;;;17.60;99.90;;;;;;4806036;29;20072;-76
2022/08/05 01:31:31;;;;;;;0.00;0.00;;;17.80;99.90;;;;;;4816907;29;20133;-75
2022/08/05 01:34:24;;;;;;;0.40;0.20;;;17.70;99.90;;;;;;4810336;29;20488;-76
2022/08/05 01:37:07;;;;;;;0.00;0.00;;;17.70;99.90;;;;;;4817550;29;20502;-76
2022/08/05 01:39:35;;;;;;;0.10;0.05;;;17.70;99.90;;;;;;4812447;29;20402;-75
2022/08/05 01:42:02;;;;;;;0.08;0.08;;;17.70;99.90;;;;;;4820475;29;20046;-75
2022/08/05 01:44:29;;;;;;;0.10;0.10;;;17.60;99.90;;;;;;4820326;29;20439;-75
2022/08/05 01:46:56;;;;;;;0.10;0.10;;;17.60;99.90;;;;;;4816479;29;20096;-76
2022/08/05 01:49:23;;;;;;;0.40;0.20;;;17.70;99.90;;;;;;4821603;29;20085;-75
2022/08/05 01:51:52;;;;;;;1.08;0.30;;;17.60;99.90;;;;;;4817065;29;20066;-75
2022/08/05 01:54:19;;;;;;;0.30;0.20;;;17.60;99.90;;;;;;4816369;29;20063;-75
2022/08/05 01:56:47;;;;;;;0.60;0.25;;;17.50;99.90;;;;;;4810178;29;20133;-76
2022/08/05 01:59:16;;;;;;;0.43;0.30;;;17.70;99.90;;;;;;4828657;29;20400;-75
2022/08/05 02:01:46;;;;;;;0.20;0.20;;;17.40;99.90;;;;;;4823481;29;20422;-75
2022/08/05 02:04:13;;;;;;;0.50;0.40;;;17.60;99.90;;;;;;4817332;29;20403;-76
2022/08/05 02:06:39;;;;;;;0.98;0.32;;;17.60;99.90;;;;;;4818891;29;20063;-76
2022/08/05 02:09:05;;;;;;;;;;;17.40;99.90;;;;;;4823533;29;20054;-75
2022/08/05 02:11:46;;;;;;;0.20;0.20;;;17.60;99.90;;;;;;4823874;29;19978;-75
2022/08/05 02:14:19;;;;;;;0.63;0.40;;;17.60;99.90;;;;;;4820654;29;20141;-75
2022/08/05 02:16:52;;;;;;;0.38;0.20;;;17.60;99.90;;;;;;4820875;29;20050;-75
2022/08/05 02:19:26;;;;;;;0.65;0.20;;;17.30;99.90;;;;;;4820916;29;20456;-75
2022/08/05 02:22:02;;;;;;;0.10;0.10;;;17.40;99.90;;;;;;4815945;29;20051;-75
2022/08/05 02:24:35;;;;;;;0.20;0.10;;;17.40;99.90;;;;;;4806485;29;20589;-76
2022/08/05 02:27:04;;;;;;;0.10;0.03;;;17.40;99.90;;;;;;4821953;29;20292;-76
2022/08/05 02:29:33;;;;;;;0.13;0.10;;;17.60;99.90;;;;;;4821141;29;20478;-75
2022/08/05 02:32:00;;;;;;;0.00;0.00;;;17.50;99.90;;;;;;4822498;29;20228;-75
2022/08/05 02:34:30;;;;;;;0.17;0.10;;;17.50;99.90;;;;;;4818028;29;20148;-75
2022/08/05 02:36:59;;;;;;;0.00;0.00;;;17.30;99.90;;;;;;4819131;29;20166;-75
2022/08/05 02:39:28;;;;;;;0.20;0.10;;;17.30;99.90;;;;;;4820579;29;20125;-75
2022/08/05 02:41:55;;;;;;;0.38;0.15;;;17.20;99.90;;;;;;4819091;29;20137;-75
2022/08/05 02:44:24;;;;;;;0.20;0.10;;;17.40;99.90;;;;;;4822600;29;20062;-75
2022/08/05 02:46:53;;;;;;;0.15;0.08;;;17.20;99.90;;;;;;4815953;29;20458;-75
2022/08/05 02:49:19;;;;;;;0.10;0.10;;;17.20;99.90;;;;;;4817030;29;20104;-75
2022/08/05 02:51:45;;;;;;;;;;;17.50;99.90;;;;;;4797806;29;20592;-76
2022/08/05 02:54:13;;;;;;;0.20;0.20;;;17.20;99.90;;;;;;4821722;29;19921;-75
2022/08/05 02:56:41;;;;;;;0.35;0.30;;;17.20;99.90;;;;;;4818106;29;20062;-75
2022/08/05 02:59:09;;;;;;;0.45;0.20;;;17.20;99.90;;;;;;4814066;29;20058;-76
2022/08/05 03:01:39;;;;;;;1.45;0.30;;;17.50;99.90;;;;;;4821681;29;20082;-76
2022/08/05 03:04:07;;;;;;;0.22;0.10;;;17.50;99.90;;;;;;4820928;29;20125;-75
2022/08/05 03:06:34;;;;;;;0.57;0.20;;;17.30;99.90;;;;;;4819629;29;20273;-75
2022/08/05 03:09:01;;;;;;;0.20;0.10;;;17.40;99.90;;;;;;4805932;29;20053;-75
2022/08/05 03:11:27;;;;;;;0.20;0.10;;;17.20;99.90;;;;;;4819986;29;20176;-75
2022/08/05 03:13:53;;;;;;;0.10;0.10;;;17.40;99.90;;;;;;4813366;29;20058;-75
2022/08/05 03:16:19;;;;;;;;;;;17.10;99.90;;;;;;4813138;29;20058;-75
2022/08/05 03:18:45;;;;;;;0.15;0.10;;;17.40;99.90;;;;;;4817884;29;19974;-75
2022/08/05 03:21:11;;;;;;;0.63;0.17;;;17.40;99.90;;;;;;4829435;29;20062;-75
2022/08/05 03:23:40;;;;;;;0.65;0.20;;;17.40;99.90;;;;;;4820212;29;20464;-76
2022/08/05 03:26:06;;;;;;;0.10;0.10;;;17.20;99.90;;;;;;4821368;29;20560;-75
2022/08/05 03:28:32;;;;;;;;;;;17.40;99.90;;;;;;4822587;29;20509;-75
2022/08/05 03:30:59;;;;;;;1.08;0.52;;;17.30;99.90;;;;;;4795153;29;19929;-75
2022/08/05 03:33:27;;;;;;;0.25;0.20;;;17.20;99.90;;;;;;4821444;29;20050;-75
2022/08/05 03:35:58;;;;;;;0.40;0.30;;;17.30;99.90;;;;;;4821861;29;20095;-75
2022/08/05 03:38:25;;;;;;;0.50;0.20;;;17.20;99.90;;;;;;4813900;29;20065;-75
2022/08/05 03:40:54;;;;;;;0.47;0.20;;;17.30;99.90;;;;;;4809230;29;20113;-75
2022/08/05 03:43:23;;;;;;;0.15;0.13;;;17.30;99.90;;;;;;4803936;29;20058;-75
2022/08/05 03:45:49;;;;;;;0.40;0.10;;;17.20;99.90;;;;;;4799575;29;20178;-75
2022/08/05 03:48:15;;;;;;;0.30;0.28;;;17.00;99.90;;;;;;4816978;29;20059;-75
2022/08/05 03:51:09;;;;;;;0.25;0.15;;;17.10;99.90;;;;;;4819182;29;20054;-75
2022/08/05 03:53:58;;;;;;;0.20;0.20;;;17.00;99.90;;;;;;4817363;29;20047;-75
2022/08/05 03:56:37;;;;;;;0.20;0.20;;;17.10;99.90;;;;;;4816233;29;20070;-75
2022/08/05 03:59:08;;;;;;;0.13;0.13;;;17.20;99.90;;;;;;4816325;29;20083;-75
2022/08/05 04:01:38;;;;;;;0.10;0.10;;;17.20;99.90;;;;;;4819891;29;20069;-75
2022/08/05 04:04:05;;;;;;;0.08;0.08;;;17.00;99.90;;;;;;4819184;29;20487;-75
2022/08/05 04:06:33;;;;;;;0.20;0.20;;;16.90;99.90;;;;;;4819483;29;20403;-75
2022/08/05 04:08:59;;;;;;;0.10;0.10;;;17.00;99.90;;;;;;4819868;29;20085;-75
2022/08/05 04:11:24;;;;;;;;;;;16.90;99.90;;;;;;4810387;29;20066;-76
2022/08/05 04:13:50;;;;;;;0.00;0.00;;;16.90;99.90;;;;;;4805785;29;19928;-75
2022/08/05 04:16:16;;;;;;;;;;;16.80;99.90;;;;;;4817541;29;20054;-75
2022/08/05 04:18:44;;;;;;;0.00;0.00;;;17.00;99.90;;;;;;4818579;29;19928;-75
2022/08/05 04:21:10;;;;;;;0.10;0.10;;;16.90;99.90;;;;;;4819510;29;20054;-75
2022/08/05 04:23:36;;;;;;;0.00;0.00;;;17.00;99.90;;;;;;4802437;29;20380;-75
2022/08/05 04:26:02;;;;;;;0.00;0.00;;;17.00;99.90;;;;;;4800582;29;20140;-75
2022/08/05 04:28:28;;;;;;;0.22;0.10;;;17.00;99.90;;;;;;4817026;29;20099;-75
2022/08/05 04:30:54;;;;;;;0.00;0.00;;;16.70;99.90;;;;;;4807993;29;20050;-75
2022/08/05 04:33:20;;;;;;;0.30;0.10;;;16.70;99.90;;;;;;4818595;29;20164;-75
2022/08/05 04:35:46;;;;;;;0.00;0.00;;;16.80;99.90;;;;;;4803689;29;20054;-75
2022/08/05 04:38:11;;;;;;;0.10;0.10;;;16.70;99.90;;;;;;4815224;29;20086;-75
2022/08/05 04:40:39;;;;;;;0.10;0.10;;;16.90;99.90;;;;;;4798401;29;20050;-75
2022/08/05 04:43:06;;;;;;;0.10;0.10;;;16.70;99.90;;;;;;4819405;29;20058;-76
2022/08/05 04:45:32;;;;;;;0.17;0.10;;;16.70;99.90;;;;;;4819370;29;20069;-75
2022/08/05 04:48:09;;;;;;;0.00;0.00;;;16.70;99.90;;;;;;4814195;29;20466;-75
2022/08/05 04:50:53;;;;;;;0.00;0.00;;;16.90;99.90;;;;;;4815682;29;20093;-75
2022/08/05 04:53:19;;;;;;;0.00;0.00;;;16.70;99.90;;;;;;4806167;29;20073;-74
2022/08/05 04:55:45;;;;;;;0.00;0.00;;;16.70;99.90;;;;;;4807180;29;20408;-74
2022/08/05 04:58:16;;;;;;;0.10;0.10;;;16.60;99.90;;;;;;4804044;29;20461;-75
2022/08/05 05:00:42;;;;;;;0.35;0.10;;;16.90;99.90;;;;;;4814292;29;20479;-75
2022/08/05 05:03:08;;;;;;;;;;;16.90;99.90;;;;;;4819148;29;20050;-75
2022/08/05 05:05:35;;;;;;;0.20;0.10;;;16.90;99.90;;;;;;4810859;29;20292;-76
2022/08/05 05:08:06;;;;;;;0.45;0.20;;;16.90;99.90;;;;;;4813314;29;20060;-75
2022/08/05 05:10:43;;;;;;;0.10;0.10;;;16.90;99.90;;;;;;4809340;29;20042;-76
2022/08/05 05:13:11;;;;;;;0.32;0.22;;;17.00;99.90;;;;;;4809063;29;20059;-75
2022/08/05 05:15:36;;;;;;;1.45;0.40;;;16.70;99.90;;;;;;4816365;29;20054;-75
2022/08/05 05:18:03;;;;;;;0.10;0.10;;;16.70;99.90;;;;;;4805002;29;20058;-75
2022/08/05 05:20:29;;;;;;;0.25;0.20;;;16.80;99.90;;;;;;4816230;29;20137;-74
2022/08/05 05:22:56;;;;;;;0.50;0.20;;;16.80;99.90;;;;;;4809784;29;20046;-74
2022/08/05 05:25:22;;;;;;;0.17;0.17;;;16.80;99.90;;;;;;4807100;29;20050;-74
2022/08/05 05:27:47;;;;;;;0.47;0.22;;;17.00;99.90;;;;;;4808541;29;20404;-75
2022/08/05 05:30:15;;;;;;;0.20;0.20;;;16.70;99.90;;;;;;4811637;29;20092;-75
2022/08/05 05:32:41;;;;;;;0.17;0.17;;;16.80;99.90;;;;;;4820233;29;20470;-75
2022/08/05 05:35:06;;;;;;;0.22;0.22;;;17.00;99.90;;;;;;4801631;29;20423;-76
2022/08/05 05:37:32;;;;;;;0.00;0.00;;;16.90;99.90;;;;;;4820355;29;20043;-76
2022/08/05 05:39:58;;;;;;;0.00;0.00;;;16.90;99.90;;;;;;4821339;29;20486;-75
2022/08/05 05:42:23;;;;;;;0.00;0.00;;;16.60;99.90;;;;;;4821264;29;20358;-75
2022/08/05 05:44:49;;;;;;;0.00;0.00;;;16.60;99.90;;;;;;4819814;29;20096;-74
2022/08/05 05:47:15;;;;;;;0.00;0.00;;;16.60;99.90;;;;;;4795886;29;20515;-74
2022/08/05 05:49:40;;;;;;;0.00;0.00;;;16.50;99.90;;;;;;4818875;29;20058;-75
2022/08/05 05:52:06;;;;;;;0.22;0.10;;;16.70;99.90;;;;;;4820323;29;20090;-74
2022/08/05 05:54:32;;;;;;;0.20;0.10;;;16.50;99.90;;;;;;4817854;29;20058;-75
2022/08/05 05:56:57;;;;;;;0.00;0.00;;;16.70;99.90;;;;;;4818736;29;20058;-74
2022/08/05 05:59:23;;;;;;;0.22;0.08;;;16.80;99.90;;;;;;4816190;29;20062;-74
2022/08/05 06:01:49;;;;;;;0.10;0.10;;;16.80;99.90;;;;;;4801614;29;20249;-74
2022/08/05 06:04:15;;;;;;;0.10;0.10;;;16.50;99.90;;;;;;4822238;29;20134;-74
2022/08/05 06:06:42;;;;;;;0.10;0.10;;;16.80;99.90;;;;;;4803524;29;20048;-74
2022/08/05 06:09:08;;;;;;;0.10;0.10;;;16.50;99.90;;;;;;4826154;29;20110;-74
2022/08/05 06:11:34;;;;;;;0.10;0.10;;;16.70;99.90;;;;;;4815235;29;20508;-74
2022/08/05 06:14:00;;;;;;;0.10;0.10;;;16.80;99.90;;;;;;4820361;29;20527;-74
2022/08/05 06:16:26;;;;;;;;;;;17.00;99.90;;;;;;4822662;29;20062;-74
2022/08/05 06:18:52;;;;;;;0.30;0.30;;;17.00;99.90;;;;;;4818978;29;20326;-74
2022/08/05 06:21:17;;;;;;;0.43;0.10;;;16.90;99.90;;;;;;4824893;29;20062;-74
2022/08/05 06:23:43;;;;;;;0.22;0.20;;;17.00;99.90;;;;;;4816142;29;20055;-75
2022/08/05 06:26:11;;;;;;;0.50;0.20;;;17.40;99.90;;;;;;4820762;29;20058;-74
2022/08/05 06:28:36;;;;;;;0.55;0.30;;;17.60;99.90;;;;;;4798529;29;20050;-74
2022/08/05 06:31:02;;;;;;;;;;;17.60;99.90;;;;;;4819560;29;20187;-75
2022/08/05 06:33:28;;;;;;;1.10;0.52;;;17.70;99.90;;;;;;4817545;29;19932;-75
2022/08/05 06:35:53;;;;;;;0.55;0.40;;;17.70;99.90;;;;;;4816149;29;20435;-74
2022/08/05 06:38:19;;;;;;;;;;;17.90;99.90;;;;;;4816095;29;20391;-74
2022/08/05 06:40:45;;;;;;;0.88;0.50;;;17.90;99.90;;;;;;4819021;29;19968;-74
2022/08/05 06:43:11;;;;;;;;;;;18.00;99.90;;;;;;4813418;29;20510;-75
2022/08/05 06:45:36;;;;;;;0.93;0.40;;;18.10;99.90;;;;;;4819101;29;19989;-74
2022/08/05 06:48:02;;;;;;;;;;;18.10;99.90;;;;;;4812687;29;20491;-74
2022/08/05 06:50:28;;;;;;;0.55;0.30;;;18.30;99.90;;;;;;4813274;29;20271;-74
2022/08/05 06:52:53;;;;;;;1.25;0.47;;;18.30;99.90;;;;;;4817732;29;20053;-75
2022/08/05 06:55:19;;;;;;;;;;;18.30;99.90;;;;;;4820113;29;20407;-74
2022/08/05 06:57:45;;;;;;;1.38;0.40;;;18.40;99.90;;;;;;4796818;29;20313;-74
2022/08/05 07:00:10;;;;;;;;;;;18.30;99.90;;;;;;4817197;29;20058;-74
2022/08/05 07:02:43;;;;;;;0.60;0.40;;;18.40;99.90;;;;;;4815028;29;19953;-75
2022/08/05 07:05:12;;;;;;;1.05;0.30;;;18.40;99.90;;;;;;4816672;29;20152;-74
2022/08/05 07:07:39;;;;;;;0.47;0.30;;;18.70;99.90;;;;;;4815777;29;20057;-74
2022/08/05 07:10:06;;;;;;;0.73;0.30;;;18.80;99.90;;;;;;4816321;29;20056;-74
2022/08/05 07:18:00;;;;;;;1.17;0.32;;;19.30;99.90;;;;;;4815911;29;20089;-75
2022/08/05 07:20:26;;;;;;;;;;;19.40;99.90;;;;;;4811550;29;20090;-75
2022/08/05 07:22:51;;;;;;;0.43;0.30;;;19.40;99.90;;;;;;4825607;29;19924;-75
2022/08/05 07:25:17;;;;;;;;;;;19.30;99.90;;;;;;4828407;29;20440;-75
2022/08/05 07:27:43;;;;;;;0.73;0.30;;;19.30;99.90;;;;;;4816470;29;20357;-75
2022/08/05 07:30:09;;;;;;;;;;;19.20;99.90;;;;;;4814838;29;20418;-75
2022/08/05 07:32:36;;;;;;;0.55;0.25;;;19.20;99.90;;;;;;4818032;29;20003;-75
2022/08/05 07:35:11;;;;;;;0.22;0.20;;;19.10;99.90;;;;;;4818034;29;20065;-75
2022/08/05 07:37:38;;;;;;;0.47;0.30;;;19.00;99.90;;;;;;4815883;29;22215;-75
2022/08/05 07:40:04;;;;;;;0.35;0.30;;;19.00;99.90;;;;;;4816951;29;20452;-75
2022/08/05 07:42:30;;;;;;;0.40;0.20;;;19.10;99.90;;;;;;4822120;29;20137;-75
2022/08/05 07:44:56;;;;;;;;;;;19.50;99.90;;;;;;4819084;29;20150;-75
2022/08/05 07:47:21;;;;;;;0.20;0.20;;;19.60;99.90;;;;;;4825708;29;19968;-75
2022/08/05 07:49:50;;;;;;;;;;;19.90;99.90;;;;;;4827151;29;20113;-75
2022/08/05 07:52:17;;;;;;;0.40;0.15;;;19.70;99.90;;;;;;4822890;29;19964;-75
2022/08/05 07:54:43;;;;;;;1.20;0.32;;;19.70;99.90;;;;;;4821382;29;20059;-75
2022/08/05 07:57:08;;;;;;;;;;;20.00;99.90;;;;;;4830017;29;20131;-74
2022/08/05 07:59:34;;;;;;;0.52;0.30;;;20.70;99.90;;;;;;4821677;29;20494;-74
2022/08/05 08:02:01;;;;;;;;;;;21.20;99.90;;;;;;4820307;29;20054;-75
2022/08/05 08:04:27;;;;;;;1.13;0.40;;;21.10;99.90;;;;;;4815357;29;19928;-74
2022/08/05 08:06:52;;;;;;;;;;;21.00;99.90;;;;;;4817760;29;20058;-75
2022/08/05 08:09:18;;;;;;;0.68;0.50;;;20.50;99.90;;;;;;4815620;29;19955;-76
2022/08/05 08:11:44;;;;;;;1.02;0.38;;;20.40;99.90;;;;;;4820312;29;20897;-74
2022/08/05 08:14:09;;;;;;;;;;;20.70;99.90;;;;;;4813510;29;20173;-74
2022/08/05 08:16:35;;;;;;;0.32;0.30;;;20.60;99.90;;;;;;4812603;29;19928;-75
2022/08/05 08:19:01;;;;;;;;;;;20.40;99.90;;;;;;4834230;29;20051;-75
2022/08/05 08:21:26;;;;;;;0.40;0.22;;;20.50;99.90;;;;;;4822118;29;19927;-75
2022/08/05 08:23:52;;;;;;;0.52;0.20;;;20.90;99.90;;;;;;4826587;29;20475;-75
2022/08/05 08:26:17;;;;;;;0.75;0.22;;;21.10;99.90;;;;;;4822529;29;20406;-75
2022/08/05 08:28:43;;;;;;;0.77;0.30;;;21.20;99.90;;;;;;4806046;29;20365;-75
2022/08/05 08:31:09;;;;;;;0.98;0.50;;;20.80;99.90;;;;;;4824476;29;20062;-75
2022/08/05 08:33:35;;;;;;;2.28;0.60;;;20.30;99.90;;;;;;4822068;29;20055;-76
2022/08/05 08:36:00;;;;;;;;;;;19.80;99.90;;;;;;4822670;29;20058;-75
2022/08/05 08:38:26;;;;;;;0.80;0.28;;;20.00;99.90;;;;;;4821095;29;19921;-74
2022/08/05 08:40:52;;;;;;;0.57;0.20;;;20.10;99.90;;;;;;4825551;29;20034;-74
2022/08/05 08:43:18;;;;;;;0.80;0.32;;;20.30;99.90;;;;;;4808041;29;20085;-74
2022/08/05 08:45:48;;;;;;;0.88;0.30;;;20.60;99.90;;;;;;4831528;29;20055;-74
2022/08/05 08:48:15;;;;;;;1.58;0.45;;;20.70;99.90;;;;;;4811415;29;20086;-74
2022/08/05 08:50:43;;;;;;;0.95;0.32;;;20.60;99.90;;;;;;4832333;29;20054;-74
2022/08/05 08:53:13;;;;;;;1.65;0.47;;;20.90;99.90;;;;;;4829350;29;20382;-74
2022/08/05 08:55:39;;;;;;;0.95;0.30;;;21.00;99.90;;;;;;4825622;29;20086;-74
2022/08/05 08:58:05;;;;;;;0.75;0.32;;;20.50;99.90;;;;;;4822478;29;20050;-75
2022/08/05 09:00:32;;;;;;;1.13;0.40;;;20.10;99.90;;;;;;4825934;29;20380;-75
2022/08/05 09:02:58;;;;;;;0.47;0.30;;;20.00;99.90;;;;;;4822852;29;20046;-74
2022/08/05 09:05:24;;;;;;;0.30;0.20;;;20.10;99.90;;;;;;4827064;29;20566;-74
2022/08/05 09:07:51;;;;;;;1.10;0.35;;;20.50;99.90;;;;;;4824825;29;20069;-74
2022/08/05 09:10:18;;;;;;;0.88;0.30;;;20.60;99.90;;;;;;4827786;29;20141;-74
2022/08/05 09:12:44;;;;;;;0.52;0.30;;;20.80;99.90;;;;;;4820401;29;20419;-74
2022/08/05 09:15:10;;;;;;;0.93;0.40;;;20.80;99.90;;;;;;4818375;29;20062;-74
2022/08/05 09:17:36;;;;;;;1.05;0.40;;;20.70;99.90;;;;;;4822835;29;20054;-74
2022/08/05 09:20:03;;;;;;;1.70;0.50;;;20.70;99.90;;;;;;4825215;29;20122;-74
2022/08/05 09:22:48;;;;;;;1.17;0.40;;;20.70;99.90;;;;;;4820511;29;20530;-74
2022/08/05 09:25:20;;;;;;;0.38;0.30;;;20.70;99.90;;;;;;4824852;29;20069;-74
2022/08/05 09:27:45;;;;;;;0.98;0.40;;;20.80;99.90;;;;;;4806354;29;20066;-73
2022/08/05 09:30:15;;;;;;;0.88;0.32;;;20.70;99.90;;;;;;4821035;29;20063;-74
2022/08/05 09:32:41;;;;;;;0.75;0.32;;;20.70;99.90;;;;;;4831195;29;20199;-74
2022/08/05 09:35:11;;;;;;;0.30;0.20;;;20.90;99.10;;;;;;4810595;29;20144;-74
2022/08/05 09:37:47;;;;;;;0.75;0.20;;;20.80;99.90;;;;;;4823327;29;20137;-74
2022/08/05 09:40:48;;;;;;;1.60;0.50;;;20.40;99.90;;;;;;4822870;29;20050;-74
2022/08/05 09:43:28;;;;;;;0.50;0.40;;;20.60;99.90;;;;;;4786411;29;20092;-74
2022/08/05 09:45:54;;;;;;;0.30;0.13;;;20.70;99.80;;;;;;4821171;29;20062;-73
2022/08/05 09:48:24;;;;;;;1.42;0.30;;;21.10;99.90;;;;;;4818890;29;20087;-74
2022/08/05 09:50:53;;;;;;;0.50;0.30;;;21.20;97.90;;;;;;4824650;29;20061;-75
2022/08/05 09:53:19;;;;;;;0.60;0.30;;;21.40;97.90;;;;;;4821683;29;20082;-74
2022/08/05 09:55:45;;;;;;;0.80;0.32;;;21.50;97.70;;;;;;4821851;29;20186;-76
2022/08/05 09:58:12;;;;;;;0.80;0.30;;;21.70;98.00;;;;;;4820866;29;20127;-75
2022/08/05 10:00:38;;;;;;;0.68;0.30;;;21.60;97.30;;;;;;4819571;29;20514;-75
2022/08/05 10:03:10;;;;;;;1.10;0.30;;;21.70;97.30;;;;;;4814587;29;20062;-75
2022/08/05 10:05:36;;;;;;;1.73;0.22;;;21.60;96.70;;;;;;4807365;29;20563;-75
2022/08/05 10:08:04;;;;;;;0.63;0.30;;;21.60;95.00;;;;;;4810503;29;20058;-76
2022/08/05 10:10:36;;;;;;;0.63;0.20;;;21.50;95.00;;;;;;4818290;29;20065;-75
2022/08/05 10:13:03;;;;;;;1.00;0.20;;;21.50;94.80;;;;;;4789595;29;20050;-76
2022/08/05 10:15:31;;;;;;;0.35;0.20;;;21.20;94.20;;;;;;4819170;29;20058;-76
2022/08/05 10:18:08;;;;;;;0.95;0.20;;;21.10;95.20;;;;;;4813623;29;20133;-75
2022/08/05 10:21:04;;;;;;;0.55;0.30;;;21.40;95.90;;;;;;4821502;29;20515;-75
2022/08/05 10:23:32;;;;;;;0.93;0.30;;;21.50;95.50;;;;;;4813687;29;20050;-75
2022/08/05 10:26:02;;;;;;;0.60;0.20;;;21.50;93.00;;;;;;4820524;29;20081;-75
2022/08/05 10:28:29;;;;;;;0.38;0.10;;;21.70;91.20;;;;;;4820164;29;20057;-75
2022/08/05 10:30:58;;;;;;;0.38;0.20;;;21.50;90.30;;;;;;4823532;29;20467;-75
2022/08/05 10:33:27;;;;;;;1.25;0.20;;;21.30;89.70;;;;;;4807261;29;20560;-75
2022/08/05 10:35:54;;;;;;;0.38;0.15;;;21.60;90.40;;;;;;4819762;29;20064;-75
2022/08/05 10:38:25;;;;;;;0.38;0.13;;;21.50;90.20;;;;;;4805605;29;20118;-75
2022/08/05 10:41:11;;;;;;;1.00;0.20;;;21.50;91.70;;;;;;4824879;29;20072;-75
2022/08/05 10:43:53;;;;;;;0.13;0.10;;;22.10;91.90;;;;;;4819527;29;20047;-75
2022/08/05 10:46:22;;;;;;;0.52;0.10;;;22.00;88.30;;;;;;4822700;29;20058;-75
2022/08/05 10:48:56;;;;;;;0.30;0.10;;;21.80;90.30;;;;;;4808485;29;20399;-76
2022/08/05 10:51:22;;;;;;;0.45;0.20;;;21.70;89.70;;;;;;4818825;29;20062;-75
2022/08/05 10:53:55;;;;;;;0.55;0.20;;;21.70;90.20;;;;;;4810677;29;20063;-76
2022/08/05 10:56:23;;;;;;;0.40;0.10;;;21.90;90.30;;;;;;4810703;29;20141;-74
2022/08/05 10:59:03;;;;;;;0.35;0.20;;;22.00;89.80;;;;;;4813130;29;20158;-75
2022/08/05 11:01:44;;;;;;;1.40;0.30;;;22.20;89.50;;;;;;4803562;29;20082;-75
2022/08/05 11:04:16;;;;;;;0.63;0.15;;;22.10;90.70;;;;;;4814388;29;20114;-74
2022/08/05 11:06:57;;;;;;;0.10;0.10;;;22.10;90.80;;;;;;4822660;29;20405;-75
2022/08/05 11:09:45;;;;;;;0.98;0.20;;;22.10;89.00;;;;;;4813581;29;20050;-75
2022/08/05 11:12:41;;;;;;;1.20;0.22;;;21.90;89.90;;;;;;4814401;29;20072;-74
2022/08/05 11:15:27;;;;;;;1.08;0.25;;;21.70;90.40;;;;;;4825012;29;20053;-75
2022/08/05 11:18:13;;;;;;;0.75;0.30;;;21.90;90.80;;;;;;4805273;29;20399;-74
2022/08/05 11:20:42;;;;;;;0.55;0.20;;;21.40;91.20;;;;;;4809294;29;20055;-74
2022/08/05 11:23:50;;;;;;;0.93;0.20;;;21.50;90.10;;;;;;4817970;29;20136;-75
2022/08/05 11:26:16;;;;;;;;;;;21.60;89.90;;;;;;4818609;29;20091;-74
2022/08/05 11:28:47;;;;;;;0.67;0.20;;;22.20;91.00;;;;;;4807090;29;19936;-74
2022/08/05 11:31:13;;;;;;;0.95;0.20;;;21.80;89.30;;;;;;4823868;29;20062;-74
2022/08/05 11:33:55;;;;;;;1.50;0.20;;;21.50;89.80;;;;;;4820352;29;20141;-75
2022/08/05 11:36:45;;;;;;;0.55;0.20;;;21.70;90.70;;;;;;4815759;29;20113;-74
2022/08/05 11:39:17;;;;;;;0.77;0.30;;;21.50;92.20;;;;;;4815006;29;20078;-74
2022/08/05 11:41:50;;;;;;;1.65;0.30;;;21.10;93.50;;;;;;4819092;29;20049;-74
2022/08/05 11:44:18;;;;;;;1.13;0.17;;;20.60;95.10;;;;;;4819652;29;20058;-75
2022/08/05 11:46:51;;;;;;;0.63;0.20;;;20.60;94.20;;;;;;4820169;29;20128;-75
2022/08/05 11:49:18;;;;;;;0.75;0.20;;;20.60;93.50;;;;;;4817399;29;20082;-74
2022/08/05 11:51:46;;;;;;;0.32;0.10;;;20.50;93.30;;;;;;4818555;29;20046;-75
2022/08/05 11:54:14;;;;;;;0.60;0.30;;;20.90;93.10;;;;;;4820834;29;20054;-75
2022/08/05 11:56:53;;;;;;;0.95;0.30;;;21.60;93.60;;;;;;4819223;29;20115;-74
2022/08/05 11:59:21;;;;;;;1.77;0.30;;;21.60;91.40;;;;;;4820656;29;20102;-75
2022/08/05 12:02:07;;;;;;;0.45;0.20;;;21.60;90.40;;;;;;4828506;29;20502;-75
2022/08/05 12:04:44;;;;;;;0.93;0.20;;;21.60;90.90;;;;;;4819199;29;20581;-74
2022/08/05 12:07:12;;;;;;;1.42;0.30;;;21.30;92.00;;;;;;4821454;29;20045;-75
2022/08/05 12:09:40;;;;;;;1.35;0.30;;;21.20;92.40;;;;;;4819911;29;20491;-74
2022/08/05 12:12:07;;;;;;;1.63;0.40;;;21.40;94.10;;;;;;4821997;29;20058;-75
2022/08/05 12:14:40;;;;;;;1.27;0.30;;;21.10;95.30;;;;;;4820626;29;20487;-75
2022/08/05 12:17:14;;;;;;;1.00;0.20;;;20.60;95.80;;;;;;4820667;29;20101;-75
2022/08/05 12:19:51;;;;;;;0.90;0.20;;;20.30;97.20;;;;;;4817083;29;20049;-75
2022/08/05 12:22:25;;;;;;;1.98;0.35;;;19.90;98.20;;;;;;4817002;29;20418;-75
2022/08/05 12:24:51;;;;;;;0.43;0.20;;;20.00;97.80;;;;;;4814271;29;20050;-75
2022/08/05 12:27:28;;;;;;;0.60;0.20;;;20.20;97.40;;;;;;4819158;29;20109;-75
2022/08/05 12:30:04;;;;;;;1.40;0.28;;;20.30;96.70;;;;;;4822618;29;20063;-75
2022/08/05 12:32:34;;;;;;;0.75;0.15;;;20.30;95.90;;;;;;4824700;29;20798;-75
2022/08/05 12:35:04;;;;;;;0.82;0.30;;;20.30;96.10;;;;;;4818723;29;20160;-75
2022/08/05 12:37:30;;;;;;;1.10;0.20;;;19.90;96.70;;;;;;4810440;29;20165;-75
2022/08/05 12:39:56;;;;;;;0.75;0.20;;;19.60;97.40;;;;;;4818695;29;20042;-75
2022/08/05 12:42:22;;;;;;;0.40;0.20;;;19.40;98.50;;;;;;4816354;29;20388;-75
2022/08/05 12:44:48;;;;;;;;;;;19.70;99.20;;;;;;4814324;29;20067;-75
2022/08/05 12:47:25;;;;;;;0.85;0.25;;;20.10;98.40;;;;;;4816248;29;19921;-75
2022/08/05 12:49:51;;;;;;;1.65;0.25;;;20.20;96.80;;;;;;4820249;29;20059;-75
2022/08/05 12:52:17;;;;;;;;;;;20.50;95.00;;;;;;4813644;29;20060;-75
2022/08/05 12:54:46;;;;;;;0.68;0.22;;;20.50;94.30;;;;;;4795793;29;20334;-75
2022/08/05 12:57:12;;;;;;;2.00;0.20;;;20.60;93.70;;;;;;4823433;29;20059;-75
2022/08/05 12:59:48;;;;;;;0.47;0.20;;;20.30;93.80;;;;;;4826202;29;20090;-75
2022/08/05 13:02:20;;;;;;;1.63;0.20;;;20.30;94.30;;;;;;4814759;29;20054;-75
2022/08/05 13:04:47;;;;;;;0.70;0.13;;;20.30;93.60;;;;;;4822725;29;20057;-75
2022/08/05 13:07:17;;;;;;;1.20;0.22;;;20.40;94.20;;;;;;4814054;29;20050;-76
2022/08/05 13:09:49;;;;;;;1.80;0.20;;;20.30;94.40;;;;;;4820727;29;20061;-75
2022/08/05 13:12:16;;;;;;;0.90;0.20;;;20.30;93.80;;;;;;4818893;29;20066;-75